createdAt,value
2023-05-24T00:01:01.349Z,83.40
2023-05-24T00:03:08.675Z,83.30
2023-05-24T00:05:16.172Z,83.40
2023-05-24T00:07:25.153Z,83.00
2023-05-24T00:09:32.742Z,82.80
2023-05-24T00:11:40.033Z,82.40
2023-05-24T00:13:47.410Z,82.20
2023-05-24T00:15:54.753Z,82.00
2023-05-24T00:18:02.057Z,81.90
2023-05-24T00:20:10.519Z,81.80
2023-05-24T00:22:18.136Z,81.90
2023-05-24T00:24:27.167Z,81.80
2023-05-24T00:26:34.852Z,81.50
2023-05-24T00:28:42.610Z,81.40
2023-05-24T00:30:50.263Z,81.50
2023-05-24T00:32:57.506Z,81.70
2023-05-24T00:37:46.445Z,81.80
2023-05-24T00:39:56.098Z,81.60
2023-05-24T00:42:03.249Z,81.70
2023-05-24T00:44:12.062Z,81.90
2023-05-24T00:46:21.548Z,81.70
2023-05-24T00:48:29.985Z,81.70
2023-05-24T00:50:37.534Z,81.70
2023-05-24T00:52:47.469Z,81.80
2023-05-24T00:54:55.075Z,81.70
2023-05-24T00:57:03.984Z,81.50
2023-05-24T00:59:11.986Z,81.30
2023-05-24T01:01:19.918Z,81.10
2023-05-24T01:03:27.000Z,80.90
2023-05-24T01:05:34.461Z,80.70
2023-05-24T01:07:54.598Z,80.30
2023-05-24T01:10:10.894Z,80.10
2023-05-24T01:12:27.025Z,79.90
2023-05-24T01:14:41.692Z,80.00
2023-05-24T01:16:55.283Z,80.00
2023-05-24T01:19:06.247Z,80.10
2023-05-24T01:21:28.780Z,79.90
2023-05-24T01:23:50.099Z,80.00
2023-05-24T02:16:59.758Z,75.20
2023-05-24T02:19:07.817Z,75.20
2023-05-24T02:21:14.954Z,75.00
2023-05-24T02:23:23.357Z,74.90
2023-05-24T02:25:30.493Z,75.00
2023-05-24T02:27:37.777Z,75.30
2023-05-24T02:29:44.817Z,75.20
2023-05-24T02:31:57.472Z,74.80
2023-05-24T02:34:04.752Z,74.50
2023-05-24T02:36:12.495Z,74.10
2023-05-24T02:38:19.472Z,73.80
2023-05-24T02:40:26.654Z,73.70
2023-05-24T02:42:33.534Z,73.60
2023-05-24T02:44:41.377Z,73.40
2023-05-24T02:46:48.863Z,72.90
2023-05-24T02:48:58.093Z,72.70
2023-05-24T02:51:05.783Z,72.30
2023-05-24T02:53:13.378Z,72.10
2023-05-24T02:55:20.571Z,72.20
2023-05-24T02:57:28.151Z,72.20
2023-05-24T02:59:35.180Z,71.90
2023-05-24T03:01:42.215Z,71.00
2023-05-24T03:03:49.197Z,70.60
2023-05-24T03:05:58.256Z,70.60
2023-05-24T03:08:05.381Z,70.10
2023-05-24T03:10:15.837Z,69.40
2023-05-24T03:12:23.430Z,69.20
2023-05-24T03:14:30.814Z,69.50
2023-05-24T03:16:37.943Z,69.30
2023-05-24T03:18:45.503Z,69.10
2023-05-24T03:20:52.627Z,68.70
2023-05-24T03:23:01.766Z,68.20
2023-05-24T03:25:10.738Z,68.10
2023-05-24T03:27:18.364Z,67.70
2023-05-24T03:29:25.293Z,67.70
2023-05-24T03:31:33.953Z,67.20
2023-05-24T03:33:41.112Z,66.70
2023-05-24T03:35:49.043Z,66.30
2023-05-24T03:37:56.137Z,66.10
2023-05-24T03:40:05.768Z,65.20
2023-05-24T03:42:32.955Z,65.30
2023-05-24T03:44:41.777Z,64.50
2023-05-24T03:46:49.032Z,64.70
2023-05-24T03:48:56.348Z,65.00
2023-05-24T03:51:03.378Z,65.50
2023-05-24T03:53:10.669Z,65.30
2023-05-24T03:55:20.204Z,65.00
2023-05-24T03:57:29.215Z,64.80
2023-05-24T03:59:37.730Z,64.40
2023-05-24T04:01:46.968Z,64.60
2023-05-24T04:03:57.484Z,63.90
2023-05-24T04:06:05.573Z,63.70
2023-05-24T04:08:13.425Z,63.30
2023-05-24T04:10:23.032Z,63.10
2023-05-24T04:12:30.041Z,62.60
2023-05-24T04:14:37.422Z,62.30
2023-05-24T04:16:46.123Z,61.90
2023-05-24T04:18:53.813Z,61.50
2023-05-24T04:21:01.431Z,60.90
2023-05-24T04:23:16.185Z,60.60
2023-05-24T04:25:26.125Z,59.90
2023-05-24T04:27:34.546Z,59.50
2023-05-24T04:29:43.210Z,58.50
2023-05-24T04:31:50.461Z,58.10
2023-05-24T04:33:57.529Z,59.10
2023-05-24T04:36:04.857Z,57.40
2023-05-24T04:38:13.689Z,58.30
2023-05-24T04:40:21.954Z,58.30
2023-05-24T04:42:33.269Z,59.10
2023-05-24T04:44:39.695Z,59.10
2023-05-24T04:46:46.705Z,58.90
2023-05-24T04:48:57.987Z,59.90
2023-05-24T04:51:05.532Z,60.40
2023-05-24T04:53:13.433Z,60.40
2023-05-24T04:55:20.406Z,60.10
2023-05-24T04:57:29.375Z,59.60
2023-05-24T04:59:36.352Z,59.10
2023-05-24T05:01:43.945Z,58.90
2023-05-24T05:03:53.951Z,58.70
2023-05-24T05:06:01.127Z,58.10
2023-05-24T05:08:09.477Z,58.40
2023-05-24T05:10:16.763Z,58.60
2023-05-24T05:12:23.792Z,58.40
2023-05-24T05:14:32.557Z,58.20
2023-05-24T05:16:39.856Z,58.20
2023-05-24T05:18:47.073Z,58.90
2023-05-24T05:20:54.557Z,59.00
2023-05-24T05:23:01.916Z,58.40
2023-05-24T05:25:09.707Z,58.30
2023-05-24T05:27:16.876Z,58.70
2023-05-24T05:29:24.433Z,58.60
2023-05-24T05:31:33.998Z,58.20
2023-05-24T05:33:40.911Z,58.00
2023-05-24T05:35:48.217Z,57.30
2023-05-24T05:37:59.587Z,57.40
2023-05-24T05:40:07.181Z,57.90
2023-05-24T05:42:14.207Z,57.80
2023-05-24T05:44:22.312Z,58.20
2023-05-24T05:46:29.430Z,57.90
2023-05-24T05:48:38.317Z,58.30
2023-05-24T05:50:45.354Z,58.20
2023-05-24T05:52:52.485Z,58.60
2023-05-24T05:55:00.521Z,58.40
2023-05-24T05:57:10.415Z,58.80
2023-05-24T05:59:18.431Z,58.90
2023-05-24T06:01:25.768Z,60.10
2023-05-24T06:03:32.864Z,60.60
2023-05-24T06:05:42.126Z,60.20
2023-05-24T06:07:49.103Z,60.10
2023-05-24T06:09:56.425Z,60.00
2023-05-24T06:12:03.467Z,60.80
2023-05-24T06:14:10.740Z,61.20
2023-05-24T06:16:17.753Z,61.10
2023-05-24T06:18:25.167Z,60.90
2023-05-24T06:20:32.227Z,61.20
2023-05-24T06:22:44.070Z,61.70
2023-05-24T06:24:51.107Z,62.00
2023-05-24T06:26:59.109Z,62.60
2023-05-24T06:29:06.293Z,62.10
2023-05-24T06:31:13.540Z,61.50
2023-05-24T06:33:20.656Z,61.60
2023-05-24T06:35:27.934Z,61.60
2023-05-24T06:37:34.920Z,61.00
2023-05-24T06:39:45.705Z,61.00
2023-05-24T06:41:53.345Z,61.60
2023-05-24T06:44:04.495Z,61.60
2023-05-24T06:46:11.571Z,62.10
2023-05-24T06:48:18.984Z,61.90
2023-05-24T06:50:30.082Z,61.70
2023-05-24T06:52:38.760Z,62.00
2023-05-24T06:54:48.706Z,62.80
2023-05-24T06:56:55.842Z,63.70
2023-05-24T06:59:03.334Z,62.80
2023-05-24T07:01:10.671Z,63.30
2023-05-24T07:03:17.743Z,62.80
2023-05-24T07:05:25.224Z,64.10
2023-05-24T07:07:35.372Z,63.60
2023-05-24T07:09:44.300Z,63.80
2023-05-24T07:11:52.910Z,63.10
2023-05-24T07:14:00.799Z,61.90
2023-05-24T07:16:08.097Z,62.30
2023-05-24T07:18:15.426Z,61.20
2023-05-24T07:20:22.690Z,59.30
2023-05-24T07:22:44.228Z,59.60
2023-05-24T07:24:51.211Z,60.10
2023-05-24T07:27:00.380Z,61.10
2023-05-24T07:29:07.458Z,60.90
2023-05-24T07:31:15.111Z,59.20
2023-05-24T07:33:22.139Z,60.00
2023-05-24T07:35:29.819Z,59.80
2023-05-24T07:37:37.004Z,60.40
2023-05-24T07:39:44.459Z,59.70
2023-05-24T07:41:52.087Z,60.10
2023-05-24T07:44:01.066Z,60.60
2023-05-24T07:46:08.624Z,61.90
2023-05-24T07:48:16.008Z,60.90
2023-05-24T07:50:23.977Z,61.30
2023-05-24T07:52:31.178Z,62.50
2023-05-24T07:54:38.462Z,61.80
2023-05-24T07:56:46.053Z,63.70
2023-05-24T07:59:02.592Z,68.80
2023-05-24T08:01:11.674Z,70.10
2023-05-24T08:03:18.965Z,71.70
2023-05-24T08:05:26.404Z,72.80
2023-05-24T08:07:33.422Z,74.50
2023-05-24T08:09:41.335Z,75.00
2023-05-24T08:11:48.300Z,75.00
2023-05-24T08:13:55.788Z,76.50
2023-05-24T08:16:02.980Z,77.40
2023-05-24T08:18:12.000Z,78.40
2023-05-24T08:20:19.268Z,79.30
2023-05-24T08:22:27.073Z,80.20
2023-05-24T08:24:34.103Z,81.80
2023-05-24T08:26:41.434Z,80.90
2023-05-24T08:28:48.422Z,79.80
2023-05-24T08:30:55.599Z,81.80
2023-05-24T08:33:04.192Z,82.80
2023-05-24T08:35:20.736Z,82.90
2023-05-24T08:37:29.565Z,85.30
2023-05-24T08:39:36.821Z,85.60
2023-05-24T08:41:49.554Z,84.90
2023-05-24T08:44:05.869Z,84.10
2023-05-24T08:46:14.163Z,84.70
2023-05-24T08:48:21.757Z,80.50
2023-05-24T08:50:36.493Z,80.30
2023-05-24T08:52:43.974Z,79.70
2023-05-24T08:54:52.397Z,80.10
2023-05-24T08:57:00.234Z,80.20
2023-05-24T08:59:07.674Z,81.90
2023-05-24T09:01:16.409Z,82.00
2023-05-24T09:03:25.221Z,82.20
2023-05-24T09:05:35.676Z,83.30
2023-05-24T09:07:43.249Z,83.70
2023-05-24T09:09:53.563Z,83.90
2023-05-24T09:12:04.785Z,83.70
2023-05-24T09:14:12.489Z,83.70
2023-05-24T09:16:20.048Z,83.20
2023-05-24T09:18:27.455Z,83.30
2023-05-24T09:20:36.342Z,84.30
2023-05-24T09:22:46.220Z,83.60
2023-05-24T09:24:53.454Z,83.80
2023-05-24T09:27:09.691Z,83.50
2023-05-24T09:29:16.929Z,84.20
2023-05-24T09:31:35.039Z,83.60
2023-05-24T09:33:43.169Z,83.70
2023-05-24T09:35:52.605Z,83.10
2023-05-24T09:38:01.319Z,82.20
2023-05-24T09:40:10.361Z,81.60
2023-05-24T09:42:22.084Z,81.30
2023-05-24T09:44:29.787Z,81.50
2023-05-24T09:46:41.086Z,81.70
2023-05-24T09:49:00.385Z,81.90
2023-05-24T09:51:11.671Z,82.30
2023-05-24T09:53:21.756Z,82.90
2023-05-24T09:55:30.590Z,82.70
2023-05-24T09:57:37.644Z,82.60
2023-05-24T09:59:45.610Z,82.20
2023-05-24T10:01:57.094Z,81.50
2023-05-24T10:04:10.421Z,80.50
2023-05-24T10:06:19.795Z,80.10
2023-05-24T10:08:27.635Z,79.90
2023-05-24T10:10:36.364Z,79.80
2023-05-24T10:12:47.857Z,79.80
2023-05-24T10:14:58.618Z,79.70
2023-05-24T10:17:07.018Z,79.50
2023-05-24T10:19:14.114Z,79.60
2023-05-24T10:21:25.652Z,79.30
2023-05-24T10:23:35.578Z,78.90
2023-05-24T10:25:58.690Z,79.00
2023-05-24T10:28:08.030Z,79.20
2023-05-24T10:30:19.955Z,79.30
2023-05-24T10:32:26.397Z,78.90
2023-05-24T10:34:34.118Z,78.40
2023-05-24T10:36:45.239Z,78.40
2023-05-24T10:38:53.303Z,78.20
2023-05-24T10:41:00.933Z,77.80
2023-05-24T10:43:09.189Z,77.70
2023-05-24T10:45:38.236Z,77.90
2023-05-24T10:47:45.588Z,79.10
2023-05-24T10:49:54.247Z,79.10
2023-05-24T10:52:11.175Z,79.20
2023-05-24T10:54:19.720Z,78.40
2023-05-24T10:56:27.913Z,78.00
2023-05-24T10:59:03.465Z,78.10
2023-05-24T11:01:17.053Z,77.20
2023-05-24T11:03:26.579Z,77.80
2023-05-24T11:05:38.233Z,77.80
2023-05-24T11:07:47.861Z,77.40
2023-05-24T11:10:01.320Z,77.10
2023-05-24T11:12:10.873Z,77.00
2023-05-24T11:14:21.448Z,77.00
2023-05-24T11:16:39.573Z,76.80
2023-05-24T11:18:59.190Z,76.50
2023-05-24T11:21:07.856Z,76.50
2023-05-24T11:23:19.252Z,76.70
2023-05-24T11:25:26.172Z,76.90
2023-05-24T11:27:34.420Z,76.90
2023-05-24T11:29:45.991Z,77.00
2023-05-24T11:31:54.382Z,77.50
2023-05-24T11:34:03.144Z,77.40
2023-05-24T11:36:11.966Z,77.30
2023-05-24T11:38:24.772Z,77.10
2023-05-24T11:40:32.715Z,77.10
2023-05-24T11:42:40.516Z,77.20
2023-05-24T11:44:48.005Z,77.20
2023-05-24T11:47:01.999Z,77.50
2023-05-24T11:49:09.631Z,78.10
2023-05-24T11:51:16.570Z,78.40
2023-05-24T11:53:26.108Z,78.70
2023-05-24T11:55:33.509Z,79.10
2023-05-24T11:57:42.352Z,79.30
2023-05-24T11:59:49.748Z,79.70
2023-05-24T12:02:03.084Z,79.70
2023-05-24T12:04:11.203Z,79.30
2023-05-24T12:06:18.405Z,79.50
2023-05-24T12:08:27.576Z,79.80
2023-05-24T12:10:35.600Z,79.50
2023-05-24T12:12:47.841Z,79.50
2023-05-24T12:14:59.773Z,79.70
2023-05-24T12:17:06.866Z,79.20
2023-05-24T12:21:36.180Z,79.40
2023-05-24T12:23:44.994Z,80.00
2023-05-24T12:25:52.023Z,80.00
2023-05-24T12:27:59.661Z,80.20
2023-05-24T12:30:12.219Z,80.30
2023-05-24T12:32:20.582Z,80.30
2023-05-24T12:34:28.932Z,80.40
2023-05-24T12:36:37.961Z,79.90
2023-05-24T12:38:46.521Z,79.30
2023-05-24T12:41:07.991Z,79.70
2023-05-24T12:43:19.886Z,80.00
2023-05-24T12:45:27.890Z,79.90
2023-05-24T12:47:34.857Z,80.20
2023-05-24T12:49:42.188Z,81.50
2023-05-24T12:51:49.615Z,82.50
2023-05-24T12:53:58.931Z,81.30
2023-05-24T12:56:06.044Z,81.20
2023-05-24T12:58:17.509Z,81.30
2023-05-24T13:00:26.041Z,81.40
2023-05-24T13:02:33.394Z,81.50
2023-05-24T13:04:40.291Z,82.80
2023-05-24T13:06:47.738Z,84.10
2023-05-24T13:08:55.066Z,84.30
2023-05-24T13:11:04.606Z,84.00
2023-05-24T13:13:11.543Z,84.60
2023-05-24T13:15:20.619Z,85.40
2023-05-24T13:17:27.613Z,85.50
2023-05-24T13:19:34.980Z,85.60
2023-05-24T13:21:42.113Z,85.80
2023-05-24T13:23:49.594Z,86.10
2023-05-24T13:25:56.775Z,86.60
2023-05-24T13:28:06.000Z,87.00
2023-05-24T13:30:13.864Z,86.80
2023-05-24T13:32:21.179Z,86.70
2023-05-24T13:34:28.625Z,86.80
2023-05-24T13:36:35.801Z,86.90
2023-05-24T13:38:42.783Z,87.10
2023-05-24T13:40:50.119Z,86.80
2023-05-24T13:42:58.380Z,86.20
2023-05-24T13:45:07.865Z,85.50
2023-05-24T13:47:23.629Z,84.80
2023-05-24T13:49:38.973Z,84.20
2023-05-24T13:51:46.067Z,83.70
2023-05-24T13:53:53.337Z,83.30
2023-05-24T13:56:01.594Z,83.00
2023-05-24T13:58:09.245Z,82.50
2023-05-24T14:00:20.161Z,82.20
2023-05-24T14:02:27.257Z,81.90
2023-05-24T14:04:34.491Z,81.60
2023-05-24T14:06:41.547Z,81.40
2023-05-24T14:08:48.888Z,81.10
2023-05-24T14:10:55.848Z,80.70
2023-05-24T14:13:13.979Z,80.40
2023-05-24T14:15:32.431Z,80.10
2023-05-24T14:17:39.675Z,79.80
2023-05-24T14:19:46.692Z,79.60
2023-05-24T14:21:53.773Z,79.70
2023-05-24T14:24:01.104Z,80.10
2023-05-24T14:26:07.988Z,80.10
2023-05-24T14:28:16.295Z,80.20
2023-05-24T14:30:23.731Z,79.90
2023-05-24T14:32:32.825Z,80.10
2023-05-24T14:34:40.000Z,80.20
2023-05-24T14:36:49.186Z,80.30
2023-05-24T14:38:56.401Z,80.70
2023-05-24T14:41:03.575Z,80.90
2023-05-24T14:43:11.435Z,81.30
2023-05-24T14:45:20.248Z,81.60
2023-05-24T14:47:27.280Z,81.90
2023-05-24T14:49:36.252Z,82.10
2023-05-24T14:51:43.276Z,81.80
2023-05-24T14:53:50.916Z,81.30
2023-05-24T14:55:58.098Z,80.90
2023-05-24T14:58:05.413Z,80.60
2023-05-24T15:00:14.105Z,80.20
2023-05-24T15:02:21.467Z,79.90
2023-05-24T15:04:29.297Z,79.60
2023-05-24T15:06:38.362Z,79.10
2023-05-24T15:08:45.619Z,78.80
2023-05-24T15:10:52.680Z,78.60
2023-05-24T15:13:00.123Z,78.40
2023-05-24T15:15:08.013Z,78.20
2023-05-24T15:17:15.401Z,77.90
2023-05-24T15:19:22.578Z,77.60
2023-05-24T15:21:29.591Z,77.30
2023-05-24T15:23:38.997Z,77.30
2023-05-24T15:25:47.394Z,77.20
2023-05-24T15:27:54.697Z,77.10
2023-05-24T15:30:01.677Z,77.10
2023-05-24T15:32:09.298Z,77.20
2023-05-24T15:34:16.287Z,77.20
2023-05-24T15:36:23.618Z,77.20
2023-05-24T15:38:30.700Z,77.30
2023-05-24T15:40:48.327Z,77.20
2023-05-24T15:42:55.605Z,77.20
2023-05-24T15:45:02.754Z,77.40
2023-05-24T15:47:10.187Z,77.40
2023-05-24T15:49:17.612Z,77.40
2023-05-24T15:52:01.588Z,77.50
2023-05-24T15:53:52.156Z,77.60
2023-05-24T15:56:00.966Z,77.70
2023-05-24T15:58:08.252Z,77.70
2023-05-24T16:00:16.353Z,77.10
2023-05-24T16:02:23.478Z,76.60
2023-05-24T16:04:30.610Z,76.30
2023-05-24T16:06:37.909Z,76.10
2023-05-24T16:08:44.828Z,75.80
2023-05-24T16:10:52.110Z,75.60
2023-05-24T16:13:01.504Z,75.40
2023-05-24T16:15:09.799Z,75.40
2023-05-24T16:17:17.123Z,75.10
2023-05-24T16:19:24.521Z,74.70
2023-05-24T16:21:31.552Z,74.30
2023-05-24T16:23:38.723Z,73.80
2023-05-24T16:25:47.298Z,73.40
2023-05-24T16:27:56.579Z,73.40
2023-05-24T16:30:05.290Z,73.60
2023-05-24T16:32:12.590Z,73.30
2023-05-24T16:34:19.863Z,73.20
2023-05-24T16:36:28.012Z,73.30
2023-05-24T16:38:35.867Z,73.30
2023-05-24T16:40:43.819Z,73.20
2023-05-24T16:42:52.387Z,73.00
2023-05-24T16:45:00.016Z,72.80
2023-05-24T16:47:09.233Z,72.90
2023-05-24T16:49:16.895Z,73.00
2023-05-24T16:51:24.230Z,72.80
2023-05-24T16:53:31.919Z,72.60
2023-05-24T16:55:38.903Z,72.60
2023-05-24T16:57:46.333Z,72.60
2023-05-24T16:59:53.274Z,72.80
2023-05-24T17:02:00.818Z,73.00
2023-05-24T17:04:09.769Z,72.90
2023-05-24T17:06:17.059Z,73.20
2023-05-24T17:08:24.697Z,73.20
2023-05-24T17:10:32.298Z,73.30
2023-05-24T17:12:39.723Z,73.50
2023-05-24T17:14:47.019Z,73.80
2023-05-24T17:16:53.959Z,74.00
2023-05-24T17:19:01.491Z,73.90
2023-05-24T17:21:10.866Z,74.00
2023-05-24T17:23:19.692Z,74.20
2023-05-24T17:25:28.146Z,74.50
2023-05-24T17:27:35.225Z,74.70
2023-05-24T17:29:48.857Z,74.90
2023-05-24T17:31:55.987Z,75.10
2023-05-24T17:34:03.040Z,75.00
2023-05-24T17:36:12.161Z,75.20
2023-05-24T17:38:19.476Z,75.10
2023-05-24T17:40:26.712Z,75.20
2023-05-24T17:42:33.628Z,75.30
2023-05-24T17:44:40.725Z,75.50
2023-05-24T17:46:50.714Z,76.30
2023-05-24T17:48:58.101Z,76.90
2023-05-24T17:51:05.559Z,77.00
2023-05-24T17:53:30.376Z,77.40
2023-05-24T17:55:38.547Z,77.60
2023-05-24T17:57:56.171Z,77.90
2023-05-24T18:00:03.389Z,77.90
2023-05-24T18:02:10.824Z,78.70
2023-05-24T18:04:17.959Z,79.00
2023-05-24T18:06:25.196Z,78.70
2023-05-24T18:08:34.938Z,78.50
2023-05-24T18:10:42.116Z,78.30
2023-05-24T18:12:49.091Z,78.40
2023-05-24T18:14:56.476Z,79.00
2023-05-24T18:17:03.487Z,78.90
2023-05-24T18:19:10.739Z,79.00
2023-05-24T18:21:17.674Z,79.10
2023-05-24T18:23:24.940Z,79.10
2023-05-24T18:25:33.504Z,78.90
2023-05-24T18:27:40.748Z,78.90
2023-05-24T18:29:47.627Z,79.10
2023-05-24T18:31:55.180Z,79.10
2023-05-24T18:34:02.223Z,79.00
2023-05-24T18:36:10.144Z,79.30
2023-05-24T18:38:17.583Z,79.40
2023-05-24T18:40:25.426Z,79.30
2023-05-24T18:42:34.257Z,79.30
2023-05-24T18:44:41.630Z,79.30
2023-05-24T18:46:48.582Z,79.30
2023-05-24T18:48:55.788Z,79.30
2023-05-24T18:51:02.819Z,79.20
2023-05-24T18:53:10.618Z,79.30
2023-05-24T18:55:17.541Z,79.30
2023-05-24T18:57:24.868Z,79.50
2023-05-24T18:59:35.481Z,79.80
2023-05-24T19:01:42.747Z,79.90
2023-05-24T19:03:49.953Z,80.00
2023-05-24T19:05:56.994Z,80.40
2023-05-24T19:08:04.107Z,80.80
2023-05-24T19:10:12.212Z,81.30
2023-05-24T19:12:19.659Z,81.90
2023-05-24T19:14:26.790Z,82.40
2023-05-24T19:16:35.911Z,82.40
2023-05-24T19:18:44.274Z,82.60
2023-05-24T19:20:52.634Z,82.40
2023-05-24T19:22:59.663Z,82.30
2023-05-24T19:25:07.196Z,82.50
2023-05-24T19:27:14.274Z,82.30
2023-05-24T19:29:21.923Z,82.10
2023-05-24T19:31:30.657Z,81.90
2023-05-24T19:33:48.549Z,81.70
2023-05-24T19:36:07.173Z,81.60
2023-05-24T19:38:18.647Z,81.40
2023-05-24T19:40:25.572Z,81.30
2023-05-24T19:42:33.015Z,81.40
2023-05-24T19:44:39.931Z,81.40
2023-05-24T19:46:47.589Z,81.50
2023-05-24T19:48:56.416Z,81.60
2023-05-24T19:51:04.141Z,81.90
2023-05-24T19:53:11.172Z,81.90
2023-05-24T19:55:18.707Z,81.60
2023-05-24T19:57:26.009Z,81.70
2023-05-24T19:59:33.228Z,81.90
2023-05-24T20:01:40.162Z,81.80
2023-05-24T20:03:49.720Z,81.70
2023-05-24T20:05:58.816Z,81.70
2023-05-24T20:08:06.203Z,81.70
2023-05-24T20:10:14.209Z,82.10
2023-05-24T20:12:21.239Z,82.20
2023-05-24T20:14:29.244Z,82.50
2023-05-24T20:16:36.818Z,82.40
2023-05-24T20:18:43.907Z,82.40
2023-05-24T20:20:51.245Z,82.70
2023-05-24T20:23:00.027Z,82.80
2023-05-24T20:25:07.398Z,82.80
2023-05-24T20:27:14.790Z,82.70
2023-05-24T20:29:21.822Z,82.70
2023-05-24T20:31:29.401Z,82.60
2023-05-24T20:33:39.057Z,82.40
2023-05-24T20:35:46.430Z,82.20
2023-05-24T20:37:53.299Z,82.10
2023-05-24T20:40:02.132Z,82.00
2023-05-24T20:42:09.506Z,82.00
2023-05-24T20:44:16.749Z,81.90
2023-05-24T20:46:23.905Z,81.70
2023-05-24T20:48:31.203Z,81.60
2023-05-24T20:50:38.287Z,81.50
2023-05-24T20:52:45.781Z,81.50
2023-05-24T20:54:53.885Z,81.80
2023-05-24T20:57:02.660Z,82.00
2023-05-24T20:59:09.896Z,81.80
2023-05-24T21:01:17.719Z,81.80
2023-05-24T21:03:25.165Z,81.60
2023-05-24T21:05:32.136Z,81.80
2023-05-24T21:07:39.645Z,81.60
2023-05-24T21:09:46.557Z,81.60
2023-05-24T21:11:53.908Z,81.50
2023-05-24T21:14:02.662Z,81.50
2023-05-24T21:16:10.157Z,81.40
2023-05-24T21:18:17.136Z,81.50
2023-05-24T21:20:24.664Z,81.60
2023-05-24T21:22:31.744Z,81.70
2023-05-24T21:24:39.030Z,81.60
2023-05-24T21:26:46.058Z,81.50
2023-05-24T21:28:53.443Z,81.70
2023-05-24T21:31:02.556Z,81.90
2023-05-24T21:33:09.610Z,82.00
2023-05-24T21:35:17.036Z,82.20
2023-05-24T21:37:24.024Z,82.30
2023-05-24T21:39:31.856Z,82.40
2023-05-24T21:41:40.583Z,82.70
2023-05-24T21:43:47.556Z,82.80
2023-05-24T21:45:55.008Z,83.00
2023-05-24T21:48:03.700Z,82.90
2023-05-24T21:50:11.667Z,83.10
2023-05-24T21:52:18.582Z,83.20
2023-05-24T21:54:25.717Z,83.40
2023-05-24T21:56:32.795Z,83.50
2023-05-24T21:58:41.569Z,83.50
2023-05-24T22:00:49.103Z,83.30
2023-05-24T22:02:56.338Z,83.70
2023-05-24T22:05:06.333Z,84.30
2023-05-24T22:07:13.467Z,84.50
2023-05-24T22:09:20.800Z,85.00
2023-05-24T22:11:27.673Z,84.90
2023-05-24T22:13:34.816Z,84.70
2023-05-24T22:15:41.892Z,84.70
2023-05-24T22:17:49.255Z,85.00
2023-05-24T22:19:56.341Z,85.50
2023-05-24T22:22:05.987Z,85.80
2023-05-24T22:24:13.838Z,86.10
2023-05-24T22:26:20.865Z,85.90
2023-05-24T22:28:27.889Z,86.40
2023-05-24T22:30:36.353Z,86.60
2023-05-24T22:32:43.524Z,87.00
2023-05-24T22:34:50.609Z,87.10
2023-05-24T22:36:58.419Z,87.00
2023-05-24T22:39:08.361Z,87.30
2023-05-24T22:41:15.539Z,88.50
2023-05-24T22:43:22.832Z,88.80
2023-05-24T22:45:29.697Z,88.90
2023-05-24T22:47:37.516Z,88.80
2023-05-24T22:49:44.477Z,88.60
2023-05-24T22:51:54.373Z,88.60
2023-05-24T22:54:01.404Z,89.10
2023-05-24T22:56:11.544Z,89.20
2023-05-24T22:58:18.567Z,89.70
2023-05-24T23:00:25.909Z,90.00
2023-05-24T23:02:32.991Z,89.80
2023-05-24T23:04:40.397Z,89.80
2023-05-24T23:06:48.471Z,89.80
2023-05-24T23:08:56.426Z,89.80
2023-05-24T23:11:11.250Z,89.70
2023-05-24T23:13:20.480Z,89.40
2023-05-24T23:15:30.213Z,89.60
2023-05-24T23:17:37.137Z,90.00
2023-05-24T23:19:45.088Z,89.70
2023-05-24T23:21:53.600Z,89.60
2023-05-24T23:24:00.931Z,88.90
2023-05-24T23:26:07.801Z,88.40
2023-05-24T23:28:15.290Z,87.50
2023-05-24T23:30:24.212Z,86.70
2023-05-24T23:32:31.538Z,86.30
2023-05-24T23:34:38.634Z,86.00
2023-05-24T23:36:45.919Z,85.80
2023-05-24T23:38:52.952Z,85.70
2023-05-24T23:41:00.112Z,85.60
2023-05-24T23:43:07.526Z,85.50
2023-05-24T23:45:16.392Z,85.30
2023-05-24T23:47:25.191Z,84.90
2023-05-24T23:49:32.743Z,84.40
2023-05-24T23:51:39.981Z,84.10
2023-05-24T23:53:47.213Z,83.70
2023-05-24T23:55:54.246Z,83.60
2023-05-24T23:58:01.570Z,83.50
